createdAt,value
2018-12-13T00:00:27.067Z,3.85
2018-12-13T00:02:55.482Z,3.85
2018-12-13T00:05:23.995Z,3.81
2018-12-13T00:07:52.404Z,3.82
2018-12-13T00:10:20.797Z,3.89
2018-12-13T00:12:49.208Z,3.81
2018-12-13T00:15:21.744Z,3.85
2018-12-13T00:17:50.283Z,3.82
2018-12-13T00:20:18.659Z,3.84
2018-12-13T00:22:47.087Z,3.83
2018-12-13T00:25:15.460Z,3.87
2018-12-13T00:27:43.875Z,3.86
2018-12-13T00:30:12.263Z,3.83
2018-12-13T00:32:40.667Z,3.89
2018-12-13T00:35:09.071Z,3.84
2018-12-13T00:37:37.724Z,3.82
2018-12-13T00:40:06.796Z,3.83
2018-12-13T00:42:35.170Z,3.83
2018-12-13T00:45:05.575Z,3.86
2018-12-13T00:47:33.961Z,3.93
2018-12-13T00:50:04.818Z,3.90
2018-12-13T00:52:33.239Z,3.88
2018-12-13T00:55:03.635Z,3.87
2018-12-13T00:57:32.021Z,3.87
2018-12-13T01:00:00.451Z,3.80
2018-12-13T01:02:28.833Z,3.80
2018-12-13T01:04:57.253Z,3.86
2018-12-13T01:07:25.752Z,3.90
2018-12-13T01:09:54.149Z,3.89
2018-12-13T01:12:22.561Z,3.82
2018-12-13T01:14:50.948Z,3.83
2018-12-13T01:17:19.340Z,3.81
2018-12-13T01:19:48.057Z,3.78
2018-12-13T01:22:16.568Z,3.82
2018-12-13T01:24:45.083Z,3.83
2018-12-13T01:27:13.492Z,3.83
2018-12-13T01:29:41.878Z,3.79
2018-12-13T01:32:10.299Z,3.82
2018-12-13T01:34:38.691Z,3.88
2018-12-13T01:37:07.429Z,3.89
2018-12-13T01:39:35.836Z,3.87
2018-12-13T01:42:07.003Z,3.86
2018-12-13T01:44:35.419Z,3.86
2018-12-13T01:47:05.566Z,3.86
2018-12-13T01:49:34.007Z,3.86
2018-12-13T01:52:05.307Z,3.82
2018-12-13T01:54:33.720Z,3.85
2018-12-13T01:57:05.331Z,3.87
2018-12-13T01:59:33.752Z,3.91
2018-12-13T02:02:04.661Z,3.80
2018-12-13T02:04:33.078Z,3.81
2018-12-13T02:07:03.421Z,3.74
2018-12-13T02:09:31.832Z,3.77
2018-12-13T02:12:00.345Z,3.70
2018-12-13T02:14:29.167Z,3.78
2018-12-13T02:16:57.648Z,3.65
2018-12-13T02:19:26.044Z,3.68
2018-12-13T02:21:54.473Z,3.74
2018-12-13T02:24:22.893Z,3.75
2018-12-13T02:26:51.284Z,3.68
2018-12-13T02:29:19.697Z,3.67
2018-12-13T02:31:48.746Z,3.75
2018-12-13T02:34:17.180Z,3.66
2018-12-13T02:36:45.573Z,3.63
2018-12-13T02:39:13.994Z,3.64
2018-12-13T02:41:42.382Z,3.67
2018-12-13T02:44:10.821Z,3.58
2018-12-13T02:46:39.213Z,3.51
2018-12-13T02:49:09.099Z,3.51
2018-12-13T02:51:37.482Z,3.45
2018-12-13T02:54:06.025Z,3.52
2018-12-13T02:56:34.434Z,3.49
2018-12-13T02:59:05.342Z,3.49
2018-12-13T03:01:33.725Z,3.48
2018-12-13T03:04:04.653Z,3.46
2018-12-13T03:06:33.073Z,3.39
2018-12-13T03:09:03.562Z,3.37
2018-12-13T03:11:31.988Z,3.42
2018-12-13T03:14:00.395Z,3.35
2018-12-13T03:16:28.768Z,3.30
2018-12-13T03:18:57.192Z,3.35
2018-12-13T03:21:25.585Z,3.45
2018-12-13T03:23:54.003Z,3.40
2018-12-13T03:26:22.393Z,3.34
2018-12-13T03:28:50.819Z,3.27
2018-12-13T03:31:19.250Z,3.24
2018-12-13T03:33:47.755Z,3.26
2018-12-13T03:36:16.258Z,3.22
2018-12-13T03:38:45.333Z,3.26
2018-12-13T03:41:13.716Z,3.26
2018-12-13T03:43:42.132Z,3.19
2018-12-13T03:46:10.517Z,3.17
2018-12-13T03:48:38.935Z,3.16
2018-12-13T03:51:07.356Z,3.16
2018-12-13T03:53:35.774Z,3.14
2018-12-13T03:56:05.216Z,3.14
2018-12-13T03:58:33.966Z,3.14
2018-12-13T04:01:05.360Z,3.19
2018-12-13T04:03:33.768Z,3.16
2018-12-13T04:06:04.456Z,3.23
2018-12-13T04:08:32.869Z,3.20
2018-12-13T04:11:04.336Z,3.28
2018-12-13T04:13:32.782Z,3.35
2018-12-13T04:16:03.451Z,3.37
2018-12-13T04:18:31.860Z,3.26
2018-12-13T04:21:00.234Z,3.31
2018-12-13T04:23:28.658Z,3.31
2018-12-13T04:25:57.032Z,3.37
2018-12-13T04:28:25.454Z,3.31
2018-12-13T04:30:53.851Z,3.30
2018-12-13T04:33:22.273Z,3.27
2018-12-13T04:35:50.796Z,3.30
2018-12-13T04:38:19.238Z,3.30
2018-12-13T04:40:47.636Z,3.29
2018-12-13T04:43:16.053Z,3.20
2018-12-13T04:45:44.447Z,3.34
2018-12-13T04:48:12.961Z,3.37
2018-12-13T04:50:42.152Z,3.31
2018-12-13T04:53:10.584Z,3.38
2018-12-13T04:55:39.020Z,3.31
2018-12-13T04:58:07.432Z,3.36
2018-12-13T05:00:35.876Z,3.35
2018-12-13T05:03:05.830Z,3.25
2018-12-13T05:05:34.262Z,3.34
2018-12-13T05:08:05.267Z,3.31
2018-12-13T05:10:47.093Z,3.34
2018-12-13T05:13:15.484Z,3.29
2018-12-13T05:15:43.928Z,3.21
2018-12-13T05:18:12.321Z,3.23
2018-12-13T05:20:41.361Z,3.18
2018-12-13T05:23:09.787Z,3.14
2018-12-13T05:25:38.209Z,3.10
2018-12-13T05:28:06.881Z,3.10
2018-12-13T05:30:35.326Z,3.13
2018-12-13T05:33:05.037Z,3.12
2018-12-13T05:35:33.464Z,3.19
2018-12-13T05:38:04.318Z,3.25
2018-12-13T05:40:32.749Z,3.23
2018-12-13T05:43:03.436Z,3.22
2018-12-13T05:45:31.900Z,3.18
2018-12-13T05:48:00.305Z,3.17
2018-12-13T05:50:28.761Z,3.17
2018-12-13T05:52:57.184Z,3.16
2018-12-13T05:55:25.633Z,3.14
2018-12-13T05:57:54.025Z,3.11
2018-12-13T06:00:22.456Z,3.07
2018-12-13T06:02:50.858Z,3.03
2018-12-13T06:05:19.313Z,3.00
2018-12-13T06:07:47.708Z,3.04
2018-12-13T06:10:16.141Z,3.02
2018-12-13T06:12:44.526Z,3.06
2018-12-13T06:15:13.096Z,3.13
2018-12-13T06:17:42.061Z,3.10
2018-12-13T06:20:10.586Z,3.15
2018-12-13T06:22:39.012Z,3.19
2018-12-13T06:25:07.577Z,3.11
2018-12-13T06:27:36.008Z,3.22
2018-12-13T06:30:07.600Z,3.24
2018-12-13T06:32:36.372Z,3.24
2018-12-13T06:35:05.693Z,3.26
2018-12-13T06:37:34.097Z,3.34
2018-12-13T06:40:05.220Z,3.25
2018-12-13T06:42:33.653Z,3.20
2018-12-13T06:45:04.633Z,3.13
2018-12-13T06:47:33.043Z,3.11
2018-12-13T06:50:06.036Z,3.10
2018-12-13T06:52:34.537Z,3.11
2018-12-13T06:55:05.504Z,3.07
2018-12-13T06:57:34.092Z,3.02
2018-12-13T07:00:05.423Z,2.99
2018-12-13T07:02:33.874Z,2.99
2018-12-13T07:05:05.382Z,3.01
2018-12-13T07:07:33.885Z,3.20
2018-12-13T07:10:06.645Z,3.25
2018-12-13T07:12:35.105Z,3.26
2018-12-13T07:15:06.633Z,3.34
2018-12-13T07:17:35.080Z,3.30
2018-12-13T07:20:05.628Z,3.32
2018-12-13T07:22:34.187Z,3.29
2018-12-13T07:25:05.384Z,3.39
2018-12-13T07:27:33.833Z,3.46
2018-12-13T07:30:04.720Z,3.43
2018-12-13T07:32:33.195Z,3.42
2018-12-13T07:35:03.667Z,3.41
2018-12-13T07:37:32.065Z,3.49
2018-12-13T07:40:00.485Z,3.50
2018-12-13T17:12:05.491Z,2.36
2018-12-13T17:14:33.996Z,2.39
2018-12-13T17:17:02.371Z,2.58
2018-12-13T17:19:30.770Z,2.80
2018-12-13T17:21:59.147Z,2.78
2018-12-13T17:24:27.565Z,2.85
2018-12-13T17:26:55.967Z,2.86
2018-12-13T17:29:24.453Z,2.91
2018-12-13T17:31:52.944Z,3.01
2018-12-13T17:34:22.052Z,2.99
2018-12-13T17:36:50.454Z,3.17
2018-12-13T17:39:18.853Z,3.12
2018-12-13T17:41:47.477Z,3.11
2018-12-13T17:44:15.952Z,2.84
2018-12-13T17:46:44.361Z,2.68
2018-12-13T17:49:12.996Z,2.66
2018-12-13T17:51:41.537Z,2.74
2018-12-13T17:54:11.176Z,2.74
2018-12-13T17:56:39.741Z,2.92
2018-12-13T17:59:08.477Z,2.76
2018-12-13T18:01:36.936Z,2.65
2018-12-13T18:04:05.372Z,2.64
2018-12-13T18:06:33.742Z,2.64
2018-12-13T18:09:02.164Z,2.63
2018-12-13T18:11:30.546Z,2.78
2018-12-13T18:13:58.984Z,2.91
2018-12-13T18:16:27.411Z,3.00
2018-12-13T18:18:56.195Z,2.93
2018-12-13T18:21:24.585Z,2.92
2018-12-13T18:23:53.001Z,2.54
2018-12-13T18:26:21.393Z,2.32
2018-12-13T18:28:49.796Z,2.30
2018-12-13T18:31:18.182Z,2.41
2018-12-13T18:33:46.697Z,2.65
2018-12-13T18:36:15.086Z,2.77
2018-12-13T18:38:43.494Z,2.79
2018-12-13T18:41:11.895Z,2.83
2018-12-13T18:43:40.337Z,2.82
2018-12-13T18:46:08.749Z,2.80
2018-12-13T18:48:37.189Z,2.83
2018-12-13T18:51:05.717Z,2.92
2018-12-13T18:53:34.362Z,2.90
2018-12-13T18:56:02.817Z,3.08
2018-12-13T18:58:31.435Z,3.03
2018-12-13T19:00:59.898Z,2.96
2018-12-13T19:03:28.318Z,2.89
2018-12-13T19:05:56.762Z,2.83
2018-12-13T19:08:26.175Z,2.40
2018-12-13T19:10:54.990Z,2.01
2018-12-13T19:13:23.589Z,1.77
2018-12-13T19:15:52.018Z,1.69
2018-12-13T19:18:20.499Z,1.75
2018-12-13T19:20:48.999Z,2.10
2018-12-13T19:23:17.513Z,2.35
2018-12-13T19:25:45.984Z,2.52
2018-12-13T19:28:14.391Z,2.55
2018-12-13T19:30:42.849Z,2.66
2018-12-13T19:33:11.308Z,2.64
2018-12-13T19:35:39.791Z,2.74
2018-12-13T19:38:08.236Z,2.70
2018-12-13T19:40:36.712Z,2.81
2018-12-13T19:43:05.261Z,2.78
2018-12-13T19:45:34.371Z,2.88
2018-12-13T19:48:02.915Z,2.85
2018-12-13T19:50:31.592Z,2.90
2018-12-13T19:53:00.106Z,2.96
2018-12-13T19:55:28.785Z,3.09
2018-12-13T19:58:03.801Z,3.12
2018-12-13T20:00:32.196Z,3.16
2018-12-13T20:03:00.592Z,3.18
2018-12-13T20:05:28.992Z,3.18
2018-12-13T20:07:59.045Z,3.18
2018-12-13T20:10:27.833Z,3.21
2018-12-13T20:12:56.325Z,3.20
2018-12-13T20:15:24.767Z,3.27
2018-12-13T20:17:53.229Z,3.16
2018-12-13T20:20:22.150Z,3.19
2018-12-13T20:22:50.592Z,3.25
2018-12-13T20:25:18.976Z,3.17
2018-12-13T20:27:47.420Z,3.11
2018-12-13T20:30:16.085Z,3.08
2018-12-13T20:32:44.543Z,3.06
2018-12-13T20:35:13.472Z,3.19
2018-12-13T20:37:41.962Z,3.12
2018-12-13T20:40:10.710Z,3.12
2018-12-13T20:42:39.172Z,3.17
2018-12-13T20:45:08.658Z,3.03
2018-12-13T20:47:37.220Z,2.99
2018-12-13T20:50:06.668Z,3.09
2018-12-13T20:52:35.128Z,3.05
2018-12-13T20:55:03.613Z,2.88
2018-12-13T20:57:32.069Z,2.64
2018-12-13T21:00:00.473Z,2.78
2018-12-13T21:02:28.858Z,2.77
2018-12-13T21:04:57.251Z,2.61
2018-12-13T21:07:30.988Z,2.28
2018-12-13T21:09:59.519Z,2.08
2018-12-13T21:12:27.912Z,1.99
2018-12-13T21:14:56.313Z,1.94
2018-12-13T21:17:24.707Z,2.39
2018-12-13T21:19:53.133Z,2.43
2018-12-13T21:22:21.577Z,2.18
2018-12-13T21:24:50.200Z,1.96
2018-12-13T21:27:18.720Z,1.73
2018-12-13T21:29:47.097Z,1.66
2018-12-13T21:32:15.514Z,1.53
2018-12-13T21:34:44.030Z,1.51
2018-12-13T21:37:12.445Z,1.61
2018-12-13T21:39:40.841Z,1.54
2018-12-13T21:42:09.284Z,1.63
2018-12-13T21:44:37.700Z,1.55
2018-12-13T21:47:06.119Z,1.43
2018-12-13T21:49:34.496Z,1.43
2018-12-13T21:52:02.909Z,1.37
2018-12-13T21:54:31.286Z,1.39
2018-12-13T21:56:59.908Z,1.66
2018-12-13T21:59:28.290Z,1.96
2018-12-13T22:01:56.713Z,2.17
2018-12-13T22:04:25.112Z,2.23
2018-12-13T22:06:53.519Z,2.23
2018-12-13T22:09:21.900Z,2.41
2018-12-13T22:11:50.330Z,2.52
2018-12-13T22:14:18.720Z,2.59
2018-12-13T22:16:47.132Z,2.73
2018-12-13T22:19:15.593Z,2.76
2018-12-13T22:21:44.172Z,2.79
2018-12-13T22:24:12.678Z,2.77
2018-12-13T22:26:41.129Z,2.75
2018-12-13T22:29:09.533Z,2.77
2018-12-13T22:31:37.928Z,2.76
2018-12-13T22:34:06.386Z,2.74
2018-12-13T22:36:35.226Z,2.69
2018-12-13T22:41:41.826Z,2.76
2018-12-13T22:44:10.324Z,2.82
2018-12-13T22:46:38.776Z,2.77
2018-12-13T22:49:07.175Z,2.84
2018-12-13T22:51:35.680Z,2.85
2018-12-13T22:54:04.070Z,2.74
2018-12-13T22:56:32.484Z,2.82
2018-12-13T22:59:00.869Z,2.70
2018-12-13T23:01:29.384Z,2.66
2018-12-13T23:03:57.758Z,2.64
2018-12-13T23:06:26.169Z,2.63
2018-12-13T23:08:54.553Z,2.66
2018-12-13T23:11:22.955Z,2.68
2018-12-13T23:13:51.330Z,2.66
2018-12-13T23:16:19.741Z,2.61
2018-12-13T23:18:48.112Z,2.66
2018-12-13T23:21:16.800Z,2.61
2018-12-13T23:23:45.200Z,2.62
2018-12-13T23:26:13.580Z,2.63
2018-12-13T23:28:41.985Z,2.63
2018-12-13T23:31:10.365Z,2.65
2018-12-13T23:33:38.787Z,2.64
2018-12-13T23:36:07.172Z,2.61
2018-12-13T23:38:35.566Z,2.61
2018-12-13T23:41:04.076Z,2.62
2018-12-13T23:43:32.477Z,2.54
2018-12-13T23:46:00.848Z,2.50
2018-12-13T23:48:29.250Z,2.49
2018-12-13T23:50:57.633Z,2.45
2018-12-13T23:53:26.389Z,2.48
2018-12-13T23:55:55.269Z,2.44
2018-12-13T23:58:24.068Z,2.52
